Time;durP1;ratioP1;P1;durP2;ratioP2;P2;SDS_P1;SDS_P2;PMS_P1;PMS_P2;Temp;Humidity;BMP_temperature;BMP_pressure;BME280_temperature;BME280_humidity;BME280_pressure;Samples;Min_cycle;Max_cycle;Signal;HPM_P1;HPM_P2
2022/10/14 00:01:49;;;;;;;1.50;0.20;;;23.80;99.90;;;;;;4962868;28;20200;-75
2022/10/14 00:04:21;;;;;;;0.50;0.30;;;23.80;99.90;;;;;;4963926;28;20565;-77
2022/10/14 00:06:52;;;;;;;0.45;0.20;;;23.80;99.90;;;;;;4964653;28;20225;-76
2022/10/14 00:09:23;;;;;;;1.13;0.20;;;23.80;99.90;;;;;;4965365;28;20207;-77
2022/10/14 00:11:53;;;;;;;0.80;0.40;;;23.80;99.90;;;;;;4964118;28;20200;-77
2022/10/14 00:14:25;;;;;;;2.08;0.22;;;23.80;99.90;;;;;;4964220;28;20672;-80
2022/10/14 00:16:56;;;;;;;0.20;0.20;;;24.00;99.90;;;;;;4969020;28;20201;-78
2022/10/14 00:19:29;;;;;;;0.75;0.20;;;24.10;99.90;;;;;;4965229;28;20210;-77
2022/10/14 00:22:00;;;;;;;0.28;0.17;;;24.20;99.90;;;;;;4960486;28;20211;-78
2022/10/14 00:24:31;;;;;;;1.20;0.30;;;24.10;99.90;;;;;;4964185;28;20205;-76
2022/10/14 00:27:01;;;;;;;0.25;0.20;;;24.30;99.90;;;;;;4962275;28;20279;-79
2022/10/14 00:29:32;;;;;;;1.20;0.40;;;24.40;99.90;;;;;;4968074;28;20208;-76
2022/10/14 00:32:03;;;;;;;1.70;0.30;;;24.30;99.90;;;;;;4962960;28;20215;-77
2022/10/14 00:34:36;;;;;;;0.73;0.20;;;24.40;99.90;;;;;;4957596;28;20212;-76
2022/10/14 00:37:06;;;;;;;0.10;0.10;;;24.40;99.90;;;;;;4961651;28;20563;-78
2022/10/14 00:39:38;;;;;;;0.20;0.20;;;24.50;99.90;;;;;;4960715;28;20231;-77
2022/10/14 00:42:11;;;;;;;2.28;0.20;;;24.60;99.90;;;;;;4964572;28;20196;-75
2022/10/14 00:45:07;;;;;;;1.38;0.20;;;24.70;99.90;;;;;;4962701;28;20200;-75
2022/10/14 00:47:38;;;;;;;0.90;0.10;;;24.80;99.90;;;;;;4964676;28;20352;-78
2022/10/14 00:50:11;;;;;;;0.10;0.10;;;24.90;99.90;;;;;;4962202;28;20216;-74
2022/10/14 00:52:42;;;;;;;0.10;0.10;;;25.00;99.90;;;;;;4966152;28;20236;-74
2022/10/14 00:55:17;;;;;;;0.25;0.25;;;24.90;99.90;;;;;;4963250;28;20208;-75
2022/10/14 00:57:48;;;;;;;1.52;0.30;;;24.90;99.90;;;;;;4964835;28;20192;-76
2022/10/14 01:00:21;;;;;;;1.08;0.20;;;25.00;99.90;;;;;;4960157;28;20207;-74
2022/10/14 01:02:52;;;;;;;1.02;0.10;;;25.20;99.90;;;;;;4969153;28;20204;-75
2022/10/14 01:05:25;;;;;;;0.40;0.10;;;25.20;99.90;;;;;;4964689;28;20225;-73
2022/10/14 01:08:09;;;;;;;0.20;0.20;;;25.10;99.90;;;;;;4965648;28;20199;-77
2022/10/14 01:10:45;;;;;;;0.20;0.20;;;25.10;99.90;;;;;;4964188;28;20205;-76
2022/10/14 01:13:25;;;;;;;0.40;0.13;;;25.20;99.90;;;;;;4958904;28;20192;-74
2022/10/14 01:16:11;;;;;;;0.43;0.30;;;25.10;99.90;;;;;;4972665;28;20207;-75
2022/10/14 01:18:52;;;;;;;0.25;0.15;;;25.10;99.90;;;;;;4963201;28;20215;-75
2022/10/14 01:21:30;;;;;;;0.10;0.10;;;24.90;99.90;;;;;;4964095;28;20204;-79
2022/10/14 01:24:40;;;;;;;0.20;0.20;;;24.50;99.90;;;;;;4961448;28;20283;-77
2022/10/14 01:27:36;;;;;;;0.22;0.10;;;24.50;99.90;;;;;;4960843;28;20308;-77
2022/10/14 01:30:15;;;;;;;0.13;0.13;;;24.80;99.90;;;;;;4956842;28;20573;-75
2022/10/14 01:33:05;;;;;;;0.28;0.10;;;25.00;99.90;;;;;;4961134;28;20284;-74
2022/10/14 01:35:44;;;;;;;6.80;0.80;;;25.20;99.90;;;;;;4957123;28;20212;-73
2022/10/14 01:38:19;;;;;;;0.20;0.10;;;25.20;99.90;;;;;;4962278;28;20196;-76
2022/10/14 01:40:54;;;;;;;1.17;0.20;;;25.00;99.90;;;;;;4960750;28;20203;-79
2022/10/14 01:43:28;;;;;;;0.30;0.20;;;25.00;99.90;;;;;;4962449;28;20223;-76
2022/10/14 01:46:02;;;;;;;1.38;0.20;;;25.10;99.90;;;;;;4958810;28;20212;-73
2022/10/14 01:48:36;;;;;;;0.68;0.20;;;25.20;99.90;;;;;;4955122;28;20207;-75
2022/10/14 01:51:10;;;;;;;0.05;0.05;;;25.20;99.90;;;;;;4958556;28;20200;-77
2022/10/14 01:53:43;;;;;;;1.15;0.22;;;25.00;99.90;;;;;;4966571;28;20349;-75
2022/10/14 01:56:16;;;;;;;0.22;0.20;;;25.10;99.90;;;;;;4956043;28;20224;-74
2022/10/14 01:58:47;;;;;;;0.75;0.20;;;25.10;99.90;;;;;;4956071;28;20197;-81
2022/10/14 02:01:20;;;;;;;0.28;0.20;;;25.10;99.90;;;;;;4956978;28;20197;-76
2022/10/14 02:03:51;;;;;;;0.63;0.30;;;25.00;99.90;;;;;;4965085;28;20205;-77
2022/10/14 02:06:26;;;;;;;0.45;0.20;;;25.00;99.90;;;;;;4961082;28;20212;-77
2022/10/14 02:09:09;;;;;;;2.17;0.80;;;25.00;99.90;;;;;;4964665;28;20191;-75
2022/10/14 02:11:46;;;;;;;0.30;0.30;;;24.80;99.90;;;;;;4965887;28;20196;-75
2022/10/14 02:14:29;;;;;;;0.10;0.10;;;24.80;99.90;;;;;;4974595;28;20184;-74
2022/10/14 02:17:05;;;;;;;0.30;0.30;;;24.90;99.90;;;;;;4961914;28;20261;-75
2022/10/14 02:19:43;;;;;;;0.10;0.10;;;24.90;99.90;;;;;;4955831;28;20200;-77
2022/10/14 02:22:26;;;;;;;0.17;0.17;;;24.80;99.90;;;;;;4954772;28;20193;-79
2022/10/14 02:25:00;;;;;;;0.40;0.10;;;24.70;99.90;;;;;;4964325;28;20203;-77
2022/10/14 02:27:32;;;;;;;0.40;0.10;;;24.70;99.90;;;;;;4960731;28;20400;-73
2022/10/14 02:30:06;;;;;;;1.15;0.43;;;24.60;99.90;;;;;;4967261;28;20188;-77
2022/10/14 02:32:40;;;;;;;0.32;0.20;;;24.60;99.90;;;;;;4969692;28;20205;-75
2022/10/14 02:35:14;;;;;;;0.52;0.10;;;24.60;99.90;;;;;;4965269;28;20287;-75
2022/10/14 02:37:46;;;;;;;1.25;0.32;;;24.60;99.90;;;;;;4960595;28;20201;-78
2022/10/14 02:40:22;;;;;;;0.15;0.15;;;24.60;99.90;;;;;;4964942;28;20204;-76
2022/10/14 02:42:52;;;;;;;0.80;0.20;;;24.60;99.90;;;;;;4963366;28;20204;-78
2022/10/14 02:45:25;;;;;;;0.28;0.10;;;24.70;99.90;;;;;;4955131;28;20200;-77
2022/10/14 02:47:58;;;;;;;0.32;0.15;;;24.70;99.90;;;;;;4969693;28;20668;-76
2022/10/14 02:50:29;;;;;;;0.52;0.20;;;24.80;99.90;;;;;;4974208;28;20189;-74
2022/10/14 02:53:00;;;;;;;0.90;0.20;;;24.80;99.90;;;;;;4968798;28;20352;-76
2022/10/14 02:55:31;;;;;;;1.45;0.20;;;24.90;99.90;;;;;;4968682;28;20682;-71
2022/10/14 02:58:01;;;;;;;0.13;0.10;;;25.00;99.90;;;;;;4970434;28;20208;-75
2022/10/14 03:00:32;;;;;;;0.57;0.25;;;25.00;99.90;;;;;;4970224;28;20547;-76
2022/10/14 03:03:05;;;;;;;0.40;0.40;;;25.00;99.90;;;;;;4963925;28;20558;-74
2022/10/14 03:05:36;;;;;;;0.90;0.10;;;24.80;99.90;;;;;;4970618;28;20207;-76
2022/10/14 03:08:06;;;;;;;0.10;0.10;;;24.80;99.90;;;;;;4970726;28;20666;-75
2022/10/14 03:10:37;;;;;;;2.50;0.10;;;24.90;99.90;;;;;;4969420;28;20203;-75
2022/10/14 03:13:08;;;;;;;0.20;0.20;;;24.90;99.90;;;;;;4972951;28;20207;-74
2022/10/14 03:15:39;;;;;;;0.98;0.20;;;24.90;99.90;;;;;;4967125;28;20215;-77
2022/10/14 03:18:11;;;;;;;0.20;0.10;;;24.80;99.90;;;;;;4971348;28;20200;-78
2022/10/14 03:20:44;;;;;;;1.10;0.38;;;24.70;99.90;;;;;;4964681;28;20200;-76
2022/10/14 03:23:15;;;;;;;1.27;0.20;;;24.80;99.90;;;;;;4964716;28;20249;-72
2022/10/14 03:25:47;;;;;;;0.28;0.15;;;24.80;99.90;;;;;;4970837;28;20192;-78
2022/10/14 03:28:18;;;;;;;0.30;0.20;;;24.90;99.90;;;;;;4971117;28;20230;-77
2022/10/14 03:30:48;;;;;;;0.85;0.20;;;24.80;99.90;;;;;;4971311;28;20192;-71
2022/10/14 03:33:21;;;;;;;0.93;0.25;;;24.70;99.90;;;;;;4972578;28;20188;-77
2022/10/14 03:35:52;;;;;;;1.08;0.10;;;24.60;99.90;;;;;;4973523;28;20791;-75
2022/10/14 03:38:22;;;;;;;1.17;0.38;;;24.70;99.90;;;;;;4966946;28;20201;-75
2022/10/14 03:40:53;;;;;;;0.40;0.10;;;24.70;99.90;;;;;;4973289;28;20549;-75
2022/10/14 03:43:24;;;;;;;1.65;0.25;;;24.60;99.90;;;;;;4971895;28;20188;-78
2022/10/14 03:45:55;;;;;;;0.20;0.20;;;24.60;99.90;;;;;;4972425;28;20581;-76
2022/10/14 03:48:28;;;;;;;0.45;0.20;;;24.70;99.90;;;;;;4972922;28;20583;-76
2022/10/14 03:50:59;;;;;;;1.55;0.20;;;24.60;99.90;;;;;;4966772;28;20201;-76
2022/10/14 03:53:30;;;;;;;0.30;0.10;;;24.60;99.90;;;;;;4965459;28;20232;-75
2022/10/14 03:56:00;;;;;;;0.10;0.10;;;24.50;99.90;;;;;;4961626;28;20211;-75
2022/10/14 03:58:31;;;;;;;1.23;0.55;;;24.50;99.90;;;;;;4965408;28;20203;-73
2022/10/14 04:01:02;;;;;;;0.40;0.10;;;24.50;99.90;;;;;;4969179;28;20703;-78
2022/10/14 04:03:34;;;;;;;0.63;0.10;;;24.50;99.90;;;;;;4966083;28;20196;-77
2022/10/14 04:06:06;;;;;;;0.50;0.10;;;24.50;99.90;;;;;;4959055;28;20213;-75
2022/10/14 04:08:36;;;;;;;1.85;0.10;;;24.50;99.90;;;;;;4957175;28;20686;-73
2022/10/14 04:11:07;;;;;;;0.20;0.20;;;24.40;99.90;;;;;;4960688;28;20197;-71
2022/10/14 04:13:38;;;;;;;1.05;0.20;;;24.30;99.90;;;;;;4967699;28;20193;-71
2022/10/14 04:16:10;;;;;;;0.28;0.10;;;24.10;99.90;;;;;;4962912;28;20193;-78
2022/10/14 04:18:43;;;;;;;0.38;0.38;;;24.10;99.90;;;;;;4965931;28;20199;-79
2022/10/14 04:21:15;;;;;;;0.47;0.28;;;24.00;99.90;;;;;;4959752;28;20189;-70
2022/10/14 04:23:46;;;;;;;0.52;0.20;;;23.80;99.90;;;;;;4966556;28;20224;-70
2022/10/14 04:26:16;;;;;;;0.85;0.10;;;23.80;99.90;;;;;;4971288;28;20222;-72
2022/10/14 04:28:47;;;;;;;1.02;0.25;;;23.80;99.90;;;;;;4961170;28;20228;-78
2022/10/14 04:31:18;;;;;;;1.17;0.50;;;23.90;99.90;;;;;;4962996;28;20231;-70
2022/10/14 04:33:51;;;;;;;1.75;0.70;;;23.80;99.90;;;;;;4974535;28;20297;-70
2022/10/14 04:36:21;;;;;;;0.95;0.20;;;23.70;99.90;;;;;;4974981;28;20648;-71
2022/10/14 04:38:52;;;;;;;0.47;0.10;;;23.60;99.90;;;;;;4976088;28;20282;-71
2022/10/14 04:41:23;;;;;;;0.55;0.20;;;23.60;99.90;;;;;;4967552;28;20193;-72
2022/10/14 04:43:54;;;;;;;0.57;0.32;;;23.60;99.90;;;;;;4962486;28;20578;-74
2022/10/14 04:46:24;;;;;;;1.40;0.20;;;23.60;99.90;;;;;;4958214;28;20227;-71
2022/10/14 04:48:57;;;;;;;0.55;0.20;;;23.60;99.90;;;;;;4973363;28;20195;-79
2022/10/14 04:51:28;;;;;;;3.50;0.20;;;23.60;99.90;;;;;;4963038;28;20185;-75
2022/10/14 04:53:59;;;;;;;0.28;0.28;;;23.70;99.90;;;;;;4965405;28;20236;-70
2022/10/14 04:56:30;;;;;;;0.50;0.22;;;23.80;99.90;;;;;;4973424;28;20193;-76
2022/10/14 04:59:01;;;;;;;0.90;0.32;;;24.00;99.90;;;;;;4970943;28;20532;-75
2022/10/14 05:01:31;;;;;;;1.55;0.20;;;24.00;99.90;;;;;;4969535;28;20292;-73
2022/10/14 05:04:04;;;;;;;0.30;0.20;;;24.00;99.90;;;;;;4967252;28;20206;-79
2022/10/14 05:06:36;;;;;;;1.70;0.40;;;24.00;99.90;;;;;;4964148;28;20224;-76
2022/10/14 05:09:07;;;;;;;0.30;0.20;;;24.00;99.90;;;;;;4967532;28;20279;-76
2022/10/14 05:11:37;;;;;;;0.60;0.20;;;24.00;99.90;;;;;;4966687;28;20184;-74
2022/10/14 05:14:08;;;;;;;1.00;0.32;;;24.00;99.90;;;;;;4965990;28;20546;-72
2022/10/14 05:16:39;;;;;;;0.77;0.50;;;24.00;99.90;;;;;;4971763;28;20208;-76
2022/10/14 05:19:12;;;;;;;0.85;0.30;;;23.90;99.90;;;;;;4965925;28;20192;-76
2022/10/14 05:21:42;;;;;;;0.45;0.30;;;23.70;99.90;;;;;;4968731;28;20287;-78
2022/10/14 05:24:13;;;;;;;1.10;0.28;;;23.60;99.90;;;;;;4969449;28;20560;-73
2022/10/14 05:26:44;;;;;;;0.80;0.20;;;23.60;99.90;;;;;;4970225;28;20310;-77
2022/10/14 05:29:15;;;;;;;0.35;0.30;;;23.50;99.90;;;;;;4968448;28;20196;-75
2022/10/14 05:31:46;;;;;;;0.35;0.25;;;23.40;99.90;;;;;;4967709;28;20196;-75
2022/10/14 05:34:18;;;;;;;0.35;0.20;;;23.40;99.90;;;;;;4968092;28;20199;-76
2022/10/14 05:36:49;;;;;;;0.65;0.40;;;23.30;99.90;;;;;;4966510;28;20213;-75
2022/10/14 05:39:20;;;;;;;1.13;0.28;;;23.20;99.90;;;;;;4969258;28;20200;-74
2022/10/14 05:41:51;;;;;;;3.05;0.40;;;23.30;99.90;;;;;;4969178;28;20204;-73
2022/10/14 05:44:21;;;;;;;0.90;0.28;;;23.50;99.90;;;;;;4969823;28;20196;-75
2022/10/14 05:46:52;;;;;;;0.75;0.20;;;23.60;99.90;;;;;;4966438;28;20579;-76
2022/10/14 05:49:29;;;;;;;0.65;0.20;;;23.80;99.90;;;;;;4961832;28;20206;-72
2022/10/14 05:51:59;;;;;;;0.93;0.30;;;23.80;99.90;;;;;;4968075;28;20201;-74
2022/10/14 05:54:30;;;;;;;0.20;0.20;;;23.90;99.90;;;;;;4881343;28;2484017;-77
2022/10/14 05:57:01;;;;;;;0.38;0.22;;;23.90;99.90;;;;;;4964861;28;20569;-77
2022/10/14 05:59:33;;;;;;;1.95;0.20;;;23.90;99.90;;;;;;4968613;28;20205;-74
2022/10/14 06:02:04;;;;;;;1.58;0.20;;;23.70;99.90;;;;;;4971757;28;20201;-72
2022/10/14 06:04:39;;;;;;;1.23;0.20;;;23.50;99.90;;;;;;4971257;28;20197;-76
2022/10/14 06:07:11;;;;;;;0.20;0.20;;;23.20;99.90;;;;;;4966202;28;20223;-78
2022/10/14 06:09:42;;;;;;;0.32;0.30;;;23.00;99.90;;;;;;4971121;28;20207;-76
2022/10/14 06:12:13;;;;;;;0.70;0.30;;;22.80;99.90;;;;;;4967099;28;20196;-73
2022/10/14 06:14:43;;;;;;;0.20;0.20;;;22.70;99.90;;;;;;4963438;28;20557;-74
2022/10/14 06:17:14;;;;;;;1.58;0.40;;;22.70;99.90;;;;;;4965932;28;20196;-77
2022/10/14 06:19:47;;;;;;;0.90;0.20;;;22.70;99.90;;;;;;4966903;28;20239;-75
2022/10/14 06:22:17;;;;;;;0.20;0.10;;;22.60;99.90;;;;;;4970773;28;20204;-76
2022/10/14 06:24:48;;;;;;;2.80;0.40;;;22.60;99.90;;;;;;4966098;28;20196;-75
2022/10/14 06:27:19;;;;;;;2.28;0.50;;;22.70;99.90;;;;;;4972771;28;20675;-77
2022/10/14 06:29:50;;;;;;;1.08;0.40;;;22.60;99.90;;;;;;4969721;28;20200;-76
2022/10/14 06:32:21;;;;;;;1.55;0.93;;;22.60;99.90;;;;;;4963475;28;20203;-76
2022/10/14 06:34:53;;;;;;;7.07;6.20;;;22.60;99.90;;;;;;4961757;28;20234;-75
2022/10/14 06:37:24;;;;;;;1.52;1.40;;;22.50;99.90;;;;;;4968951;28;20619;-76
2022/10/14 06:39:55;;;;;;;0.73;0.43;;;22.40;99.90;;;;;;4969097;28;20201;-74
2022/10/14 06:42:25;;;;;;;2.22;0.60;;;22.40;99.90;;;;;;4969308;28;20196;-78
2022/10/14 06:44:56;;;;;;;1.23;0.45;;;22.40;99.90;;;;;;4968395;28;20204;-80
2022/10/14 06:47:27;;;;;;;0.75;0.38;;;22.30;99.90;;;;;;4971841;28;20218;-73
2022/10/14 06:49:59;;;;;;;1.65;0.45;;;22.40;99.90;;;;;;4972848;28;20651;-75
2022/10/14 06:52:30;;;;;;;0.20;0.20;;;22.30;99.90;;;;;;4963881;28;20200;-77
2022/10/14 06:55:01;;;;;;;0.65;0.28;;;22.20;99.90;;;;;;4962704;28;20193;-78
2022/10/14 06:57:32;;;;;;;0.40;0.40;;;22.20;99.90;;;;;;4960754;28;20276;-71
2022/10/14 07:00:03;;;;;;;0.70;0.30;;;22.10;99.90;;;;;;4959933;28;20207;-74
2022/10/14 07:02:34;;;;;;;21.98;19.55;;;22.00;99.90;;;;;;4962407;28;20719;-75
2022/10/14 07:05:07;;;;;;;2.25;1.05;;;22.00;99.90;;;;;;4960323;28;20207;-73
2022/10/14 07:07:38;;;;;;;1.48;0.50;;;22.00;99.90;;;;;;4959159;28;20220;-74
2022/10/14 07:10:09;;;;;;;1.00;0.30;;;22.00;99.90;;;;;;4961521;28;20667;-74
2022/10/14 07:12:40;;;;;;;0.80;0.30;;;22.00;99.90;;;;;;4962518;28;20247;-75
2022/10/14 07:15:11;;;;;;;0.30;0.30;;;22.00;99.90;;;;;;4960480;28;20193;-77
2022/10/14 07:17:42;;;;;;;2.00;0.40;;;22.00;99.90;;;;;;4956655;28;20652;-76
2022/10/14 07:20:15;;;;;;;0.30;0.30;;;22.00;99.90;;;;;;4958982;28;20221;-79
2022/10/14 07:22:46;;;;;;;0.55;0.30;;;22.00;99.90;;;;;;4965077;28;20204;-75
2022/10/14 07:25:17;;;;;;;0.47;0.20;;;21.90;99.90;;;;;;4957632;28;20197;-77
2022/10/14 07:27:47;;;;;;;0.95;0.30;;;21.70;99.90;;;;;;4963377;28;20699;-76
2022/10/14 07:30:18;;;;;;;1.33;0.32;;;21.60;99.90;;;;;;4962703;28;20574;-77
2022/10/14 07:32:49;;;;;;;0.70;0.28;;;21.60;99.90;;;;;;4962936;28;20217;-76
2022/10/14 07:35:22;;;;;;;0.25;0.20;;;21.50;99.90;;;;;;4959031;28;20220;-72
2022/10/14 07:37:52;;;;;;;2.67;0.30;;;21.40;99.90;;;;;;4961607;28;20640;-75
2022/10/14 07:40:23;;;;;;;0.88;0.30;;;21.40;99.90;;;;;;4961731;28;20212;-74
2022/10/14 07:42:54;;;;;;;1.70;0.22;;;21.30;99.90;;;;;;4964835;28;20226;-75
2022/10/14 07:45:25;;;;;;;1.65;0.20;;;21.20;99.90;;;;;;4963523;28;20189;-74
2022/10/14 07:47:55;;;;;;;0.40;0.30;;;21.20;99.90;;;;;;4963681;28;20220;-76
2022/10/14 07:50:28;;;;;;;0.95;0.40;;;21.10;99.90;;;;;;4967012;28;20267;-73
2022/10/14 07:52:59;;;;;;;1.35;0.28;;;21.00;99.90;;;;;;4970522;23;20229;-74
2022/10/14 07:55:30;;;;;;;0.98;0.30;;;21.00;99.90;;;;;;4935579;29;20229;-76
2022/10/14 07:58:01;;;;;;;0.57;0.20;;;20.90;99.90;;;;;;4938227;29;20186;-76
2022/10/14 08:00:32;;;;;;;0.38;0.30;;;20.80;99.90;;;;;;4938505;29;20196;-76
2022/10/14 08:03:03;;;;;;;0.47;0.30;;;20.80;99.90;;;;;;4938267;29;20229;-77
2022/10/14 08:05:35;;;;;;;0.60;0.28;;;20.70;99.90;;;;;;4934912;29;20208;-76
2022/10/14 08:08:06;;;;;;;0.73;0.38;;;20.70;99.90;;;;;;4935410;29;20272;-76
2022/10/14 08:10:38;;;;;;;0.90;0.40;;;20.60;99.90;;;;;;4933837;29;20292;-77
2022/10/14 08:13:09;;;;;;;0.70;0.40;;;20.50;99.90;;;;;;4937661;29;20240;-75
2022/10/14 08:15:42;;;;;;;1.15;0.50;;;20.50;99.90;;;;;;4935069;29;20197;-76
2022/10/14 08:18:13;;;;;;;0.40;0.40;;;20.40;99.90;;;;;;4934512;29;20205;-75
2022/10/14 08:20:46;;;;;;;0.65;0.40;;;20.40;99.90;;;;;;4930449;29;20205;-74
2022/10/14 08:23:17;;;;;;;0.75;0.40;;;20.30;99.90;;;;;;4931272;29;20236;-75
2022/10/14 08:25:52;;;;;;;0.63;0.40;;;20.30;99.90;;;;;;4933543;29;20194;-76
2022/10/14 08:28:23;;;;;;;0.93;0.52;;;20.30;99.90;;;;;;4934254;29;20227;-76
2022/10/14 08:30:54;;;;;;;1.15;0.60;;;20.20;99.90;;;;;;4934557;29;20206;-75
2022/10/14 08:33:25;;;;;;;1.27;0.60;;;20.20;99.90;;;;;;4934461;29;20672;-74
2022/10/14 08:35:58;;;;;;;0.98;0.40;;;20.10;99.90;;;;;;4934165;29;20293;-75
2022/10/14 08:38:30;;;;;;;2.92;0.50;;;20.10;99.90;;;;;;4936146;29;20379;-75
2022/10/14 08:41:08;;;;;;;0.70;0.50;;;20.00;99.90;;;;;;4937459;29;20289;-76
2022/10/14 08:43:41;;;;;;;1.10;0.70;;;20.00;99.90;;;;;;4934721;29;20201;-74
2022/10/14 08:46:20;;;;;;;0.75;0.50;;;19.90;99.90;;;;;;4932671;29;20197;-78
2022/10/14 08:48:56;;;;;;;1.27;0.50;;;19.90;99.90;;;;;;4932780;29;20229;-79
2022/10/14 08:51:31;;;;;;;1.58;0.50;;;19.90;99.90;;;;;;4932961;29;20201;-75
2022/10/14 08:54:08;;;;;;;2.33;0.60;;;19.80;99.90;;;;;;4942349;29;20324;-77
2022/10/14 08:56:41;;;;;;;1.80;0.60;;;19.80;99.90;;;;;;4948707;28;20259;-76
2022/10/14 08:59:18;;;;;;;0.80;0.60;;;19.80;99.90;;;;;;4951759;29;20201;-75
2022/10/14 09:01:54;;;;;;;0.80;0.50;;;19.80;99.90;;;;;;4951772;29;20288;-78
2022/10/14 09:04:25;;;;;;;0.90;0.50;;;19.70;99.90;;;;;;4946406;29;20203;-77
2022/10/14 09:06:58;;;;;;;0.50;0.40;;;19.70;99.90;;;;;;4950479;29;20196;-77
2022/10/14 09:09:34;;;;;;;0.90;0.40;;;19.60;99.90;;;;;;4950658;29;20232;-79
2022/10/14 09:12:08;;;;;;;0.77;0.43;;;19.60;99.90;;;;;;4952797;29;20192;-77
2022/10/14 09:14:43;;;;;;;0.98;0.43;;;19.50;99.90;;;;;;4951273;29;20227;-75
2022/10/14 09:17:19;;;;;;;0.73;0.50;;;19.40;99.90;;;;;;4954472;29;20227;-75
2022/10/14 09:19:53;;;;;;;1.08;0.30;;;19.40;99.90;;;;;;4950828;29;20216;-75
2022/10/14 09:22:28;;;;;;;0.68;0.30;;;19.40;99.90;;;;;;4952651;29;20203;-75
2022/10/14 09:25:00;;;;;;;1.00;0.45;;;19.40;99.90;;;;;;4950519;29;20204;-75
2022/10/14 09:27:32;;;;;;;0.35;0.13;;;19.30;99.90;;;;;;4953385;29;20209;-75
2022/10/14 09:30:09;;;;;;;0.82;0.40;;;19.30;99.90;;;;;;4953640;29;20190;-75
2022/10/14 09:32:43;;;;;;;1.85;0.30;;;19.20;99.90;;;;;;4953854;29;20208;-74
2022/10/14 09:35:20;;;;;;;2.13;0.40;;;19.20;99.90;;;;;;4955484;29;20252;-75
2022/10/14 09:37:52;;;;;;;0.85;0.30;;;19.10;99.90;;;;;;4952991;29;20659;-75
2022/10/14 09:40:31;;;;;;;0.82;0.40;;;19.10;99.90;;;;;;4954223;29;20207;-76
2022/10/14 09:43:05;;;;;;;0.65;0.30;;;19.00;99.90;;;;;;4953272;29;20208;-75
2022/10/14 09:45:52;;;;;;;0.70;0.40;;;19.00;99.90;;;;;;4955278;29;20207;-75
2022/10/14 09:48:36;;;;;;;0.73;0.40;;;19.00;99.90;;;;;;4951198;29;20220;-75
2022/10/14 09:51:09;;;;;;;1.67;0.70;;;18.90;99.90;;;;;;4955203;29;20197;-75
2022/10/14 09:53:47;;;;;;;0.98;0.40;;;18.90;99.90;;;;;;4950859;28;20243;-77
2022/10/14 09:56:28;;;;;;;3.22;0.55;;;18.80;99.90;;;;;;4953305;29;20683;-78
2022/10/14 09:59:00;;;;;;;0.68;0.40;;;18.80;99.90;;;;;;4955409;29;20660;-77
2022/10/14 10:01:34;;;;;;;1.40;0.45;;;18.70;99.90;;;;;;4951807;29;20201;-77
2022/10/14 10:04:34;;;;;;;0.75;0.50;;;18.60;99.90;;;;;;4950508;29;20392;-78
2022/10/14 10:07:07;;;;;;;1.05;0.40;;;18.60;99.90;;;;;;4952365;29;20204;-77
2022/10/14 10:09:40;;;;;;;1.33;0.60;;;18.50;99.90;;;;;;4950682;28;20229;-78
2022/10/14 10:12:26;;;;;;;0.70;0.38;;;18.50;99.90;;;;;;4950696;29;20197;-78
2022/10/14 10:15:02;;;;;;;1.52;0.40;;;18.40;99.90;;;;;;4954290;29;20197;-77
2022/10/14 10:17:34;;;;;;;1.33;0.50;;;18.40;99.90;;;;;;4951740;29;20196;-78
2022/10/14 10:20:27;;;;;;;0.82;0.43;;;18.40;99.90;;;;;;4955121;29;20201;-78
2022/10/14 10:22:59;;;;;;;0.80;0.55;;;18.40;99.90;;;;;;4953839;29;20683;-78
2022/10/14 10:25:32;;;;;;;0.85;0.50;;;18.30;99.90;;;;;;4952671;29;20201;-78
2022/10/14 10:28:02;;;;;;;0.77;0.50;;;18.30;99.90;;;;;;4955663;29;20196;-78
2022/10/14 10:30:37;;;;;;;1.25;0.70;;;18.20;99.90;;;;;;4953051;29;20201;-78
2022/10/14 10:33:28;;;;;;;0.95;0.60;;;18.20;99.90;;;;;;4954333;29;20628;-78
2022/10/14 10:36:14;;;;;;;2.90;0.80;;;18.20;99.90;;;;;;4946743;29;20195;-78
2022/10/14 10:38:58;;;;;;;1.58;0.68;;;18.20;99.90;;;;;;4946684;29;20560;-78
2022/10/14 10:41:47;;;;;;;1.67;0.80;;;18.10;99.90;;;;;;4943160;29;20201;-78
2022/10/14 10:44:46;;;;;;;2.03;0.88;;;18.10;99.90;;;;;;4955285;29;20193;-78
2022/10/14 10:47:33;;;;;;;1.83;0.80;;;18.10;99.90;;;;;;4954012;29;20197;-79
2022/10/14 10:50:30;;;;;;;2.38;0.70;;;18.10;99.90;;;;;;4954379;29;20223;-79
2022/10/14 10:53:38;;;;;;;1.00;0.55;;;18.00;99.90;;;;;;4951613;28;20244;-78
2022/10/14 10:56:24;;;;;;;0.65;0.40;;;18.00;99.90;;;;;;4944346;29;20209;-78
2022/10/14 10:59:25;;;;;;;1.35;0.60;;;17.90;99.90;;;;;;4949844;29;20289;-78
2022/10/14 11:02:11;;;;;;;1.48;0.60;;;17.90;99.90;;;;;;4934340;29;20203;-78
2022/10/14 11:04:50;;;;;;;1.80;0.55;;;17.90;99.90;;;;;;4952705;29;20197;-78
2022/10/14 11:13:23;;;;;;;1.60;0.60;;;17.70;99.90;;;;;;4952386;29;20208;-78
2022/10/14 11:16:01;;;;;;;1.17;0.60;;;17.70;99.90;;;;;;4953525;29;20220;-78
2022/10/14 11:18:46;;;;;;;1.15;0.60;;;17.60;99.90;;;;;;4954295;29;20201;-78
2022/10/14 11:21:27;;;;;;;1.83;0.60;;;17.60;99.90;;;;;;4952015;29;20200;-78
2022/10/14 11:24:09;;;;;;;2.67;0.75;;;17.50;99.90;;;;;;4953314;29;20661;-78
2022/10/14 11:26:59;;;;;;;1.83;0.75;;;17.50;99.90;;;;;;4953866;29;20197;-78
2022/10/14 11:29:53;;;;;;;3.13;0.75;;;17.30;99.90;;;;;;4946196;29;20276;-78
2022/10/14 11:32:39;;;;;;;1.83;0.90;;;17.30;99.90;;;;;;4953019;29;20279;-78
2022/10/14 11:35:23;;;;;;;1.58;0.80;;;17.20;99.90;;;;;;4944740;29;20201;-77
2022/10/14 11:38:09;;;;;;;1.80;0.65;;;17.20;99.90;;;;;;4951091;29;20201;-78
2022/10/14 11:40:45;;;;;;;1.98;0.80;;;17.10;99.90;;;;;;4954114;29;20200;-78
2022/10/14 11:43:26;;;;;;;1.52;0.80;;;17.10;99.90;;;;;;4953226;29;20199;-78
2022/10/14 11:46:00;;;;;;;1.52;0.88;;;17.00;99.90;;;;;;4953448;29;20203;-78
2022/10/14 11:48:41;;;;;;;2.53;0.90;;;17.00;99.90;;;;;;4953587;29;20579;-77
2022/10/14 11:51:18;;;;;;;1.70;0.77;;;16.90;99.90;;;;;;4953836;29;20205;-78
2022/10/14 11:53:59;;;;;;;2.45;1.10;;;16.90;99.90;;;;;;4952095;28;20233;-79
2022/10/14 11:56:48;;;;;;;1.65;0.90;;;16.90;99.90;;;;;;4952003;29;20222;-77
2022/10/14 11:59:39;;;;;;;2.30;0.90;;;16.80;99.90;;;;;;4945755;29;20720;-79
2022/10/14 12:02:29;;;;;;;1.98;0.80;;;16.80;99.90;;;;;;4948188;29;20243;-78
2022/10/14 12:05:11;;;;;;;1.60;0.82;;;16.80;99.90;;;;;;4953370;29;20736;-77
2022/10/14 12:07:46;;;;;;;3.00;0.80;;;16.70;99.90;;;;;;4952049;29;20201;-79
2022/10/14 12:10:25;;;;;;;1.70;0.90;;;16.70;99.90;;;;;;4951867;29;20216;-79
2022/10/14 12:12:58;;;;;;;2.83;0.98;;;16.60;99.90;;;;;;4952388;29;20239;-79
2022/10/14 12:15:30;;;;;;;1.88;0.73;;;16.60;99.90;;;;;;4952210;29;20197;-79
2022/10/14 12:18:02;;;;;;;1.27;0.77;;;16.50;99.90;;;;;;4954103;29;20193;-78
2022/10/14 12:20:40;;;;;;;1.77;0.80;;;16.40;99.90;;;;;;4951972;29;20197;-79
2022/10/14 12:23:16;;;;;;;2.00;0.90;;;16.30;99.90;;;;;;4949369;29;20197;-79
2022/10/14 12:26:05;;;;;;;2.83;0.90;;;16.20;99.90;;;;;;4952742;29;20205;-78
2022/10/14 12:28:38;;;;;;;1.65;0.90;;;16.00;99.90;;;;;;4946030;29;20201;-79
2022/10/14 12:31:35;;;;;;;3.90;1.10;;;16.00;99.90;;;;;;4949468;28;20201;-78
2022/10/14 12:34:38;;;;;;;1.20;0.90;;;16.00;99.90;;;;;;4950481;29;20661;-79
2022/10/14 12:37:50;;;;;;;1.35;1.00;;;16.00;99.90;;;;;;4956833;29;20196;-80
2022/10/14 12:40:35;;;;;;;2.80;0.80;;;16.00;99.90;;;;;;4877275;29;20218;-79
2022/10/14 12:43:18;;;;;;;3.30;0.85;;;15.90;99.90;;;;;;4878569;29;20203;-78
2022/10/14 12:46:11;;;;;;;1.75;0.95;;;15.80;99.90;;;;;;4938288;29;20212;-77
2022/10/14 12:48:49;;;;;;;2.22;0.82;;;15.70;99.90;;;;;;4950187;29;20244;-77
2022/10/14 12:51:22;;;;;;;1.15;0.80;;;15.70;99.90;;;;;;4957236;29;20189;-78
2022/10/14 12:54:09;;;;;;;1.63;0.90;;;15.80;99.90;;;;;;4952466;29;20250;-77
2022/10/14 12:56:44;;;;;;;2.15;0.90;;;15.70;99.90;;;;;;4948267;29;20654;-79
2022/10/14 12:59:25;;;;;;;0.88;0.80;;;15.70;99.90;;;;;;4953486;29;20200;-79
2022/10/14 13:02:03;;;;;;;2.42;1.10;;;15.70;99.90;;;;;;4954546;29;20239;-79
2022/10/14 13:04:34;;;;;;;2.25;0.90;;;15.70;99.90;;;;;;4955994;29;20212;-79
2022/10/14 13:07:33;;;;;;;2.90;0.90;;;15.70;99.90;;;;;;4956131;29;20668;-79
2022/10/14 13:10:42;;;;;;;1.88;0.90;;;15.70;99.90;;;;;;4935106;29;20237;-79
2022/10/14 13:13:51;;;;;;;4.13;0.90;;;15.70;99.90;;;;;;4954906;29;20252;-79
2022/10/14 13:16:59;;;;;;;2.63;1.00;;;15.80;99.90;;;;;;4949452;29;20201;-78
2022/10/14 13:19:47;;;;;;;2.78;1.17;;;15.80;99.90;;;;;;4954169;29;20201;-79
2022/10/14 13:22:42;;;;;;;0.88;0.70;;;15.90;99.90;;;;;;4954843;29;20197;-77
2022/10/14 13:25:22;;;;;;;1.52;0.80;;;15.90;99.90;;;;;;4957344;29;20205;-79
2022/10/14 13:28:10;;;;;;;2.33;0.80;;;16.00;99.90;;;;;;4953569;29;20207;-78
2022/10/14 13:31:00;;;;;;;0.70;0.60;;;16.00;99.90;;;;;;4950396;29;20456;-79
2022/10/14 13:33:38;;;;;;;2.22;0.70;;;16.00;99.90;;;;;;4953385;29;20197;-79
2022/10/14 13:36:17;;;;;;;2.97;0.70;;;16.10;99.90;;;;;;4955680;29;20201;-79